sensor_id;sensor_type;location;lat;lon;timestamp;P1;durP1;ratioP1;P2;durP2;ratioP2
18290;SDS011;9271;48.590;8.866;2022-11-15T00:00:30;12.57;;;8.90;;
18290;SDS011;9271;48.590;8.866;2022-11-15T00:02:58;9.43;;;8.07;;
18290;SDS011;9271;48.590;8.866;2022-11-15T00:05:25;9.40;;;8.40;;
18290;SDS011;9271;48.590;8.866;2022-11-15T00:07:51;12.60;;;10.33;;
18290;SDS011;9271;48.590;8.866;2022-11-15T00:10:18;14.80;;;12.27;;
18290;SDS011;9271;48.590;8.866;2022-11-15T00:12:45;14.13;;;10.33;;
18290;SDS011;9271;48.590;8.866;2022-11-15T00:15:12;13.10;;;11.03;;
18290;SDS011;9271;48.590;8.866;2022-11-15T00:17:38;14.20;;;11.90;;
18290;SDS011;9271;48.590;8.866;2022-11-15T00:20:07;12.83;;;11.37;;
18290;SDS011;9271;48.590;8.866;2022-11-15T00:22:35;13.00;;;10.93;;
18290;SDS011;9271;48.590;8.866;2022-11-15T00:25:01;12.33;;;11.03;;
18290;SDS011;9271;48.590;8.866;2022-11-15T00:27:28;13.23;;;11.90;;
18290;SDS011;9271;48.590;8.866;2022-11-15T00:29:55;14.87;;;11.40;;
18290;SDS011;9271;48.590;8.866;2022-11-15T00:32:22;11.97;;;10.50;;
18290;SDS011;9271;48.590;8.866;2022-11-15T00:34:48;12.93;;;11.53;;
18290;SDS011;9271;48.590;8.866;2022-11-15T00:37:16;12.80;;;10.80;;
18290;SDS011;9271;48.590;8.866;2022-11-15T00:39:43;11.37;;;10.10;;
18290;SDS011;9271;48.590;8.866;2022-11-15T00:42:10;13.73;;;11.33;;
18290;SDS011;9271;48.590;8.866;2022-11-15T00:44:37;12.93;;;11.00;;
18290;SDS011;9271;48.590;8.866;2022-11-15T00:47:03;14.27;;;10.53;;
18290;SDS011;9271;48.590;8.866;2022-11-15T00:49:30;12.47;;;10.20;;
18290;SDS011;9271;48.590;8.866;2022-11-15T00:51:57;13.03;;;10.50;;
18290;SDS011;9271;48.590;8.866;2022-11-15T00:54:25;13.47;;;10.80;;
18290;SDS011;9271;48.590;8.866;2022-11-15T00:56:52;11.57;;;9.57;;
18290;SDS011;9271;48.590;8.866;2022-11-15T00:59:18;13.57;;;10.80;;
18290;SDS011;9271;48.590;8.866;2022-11-15T01:01:45;12.17;;;10.83;;
18290;SDS011;9271;48.590;8.866;2022-11-15T01:04:12;12.63;;;10.33;;
18290;SDS011;9271;48.590;8.866;2022-11-15T01:06:39;11.40;;;10.10;;
18290;SDS011;9271;48.590;8.866;2022-11-15T01:09:06;11.97;;;9.67;;
18290;SDS011;9271;48.590;8.866;2022-11-15T01:11:34;13.20;;;10.33;;
18290;SDS011;9271;48.590;8.866;2022-11-15T01:14:01;11.40;;;9.47;;
18290;SDS011;9271;48.590;8.866;2022-11-15T01:16:27;12.50;;;11.03;;
18290;SDS011;9271;48.590;8.866;2022-11-15T01:18:54;13.20;;;10.50;;
18290;SDS011;9271;48.590;8.866;2022-11-15T01:21:21;12.07;;;10.30;;
18290;SDS011;9271;48.590;8.866;2022-11-15T01:23:47;10.70;;;9.60;;
18290;SDS011;9271;48.590;8.866;2022-11-15T01:26:14;11.27;;;10.07;;
18290;SDS011;9271;48.590;8.866;2022-11-15T01:28:43;11.40;;;9.77;;
18290;SDS011;9271;48.590;8.866;2022-11-15T01:31:12;12.10;;;9.97;;
18290;SDS011;9271;48.590;8.866;2022-11-15T01:33:39;12.17;;;10.23;;
18290;SDS011;9271;48.590;8.866;2022-11-15T01:36:07;10.60;;;9.40;;
18290;SDS011;9271;48.590;8.866;2022-11-15T01:38:37;11.10;;;9.87;;
18290;SDS011;9271;48.590;8.866;2022-11-15T01:41:04;14.13;;;10.77;;
18290;SDS011;9271;48.590;8.866;2022-11-15T01:43:32;11.77;;;10.07;;
18290;SDS011;9271;48.590;8.866;2022-11-15T01:46:02;13.23;;;11.30;;
18290;SDS011;9271;48.590;8.866;2022-11-15T01:48:33;14.83;;;10.20;;
18290;SDS011;9271;48.590;8.866;2022-11-15T01:51:01;12.13;;;10.37;;
18290;SDS011;9271;48.590;8.866;2022-11-15T01:53:32;10.23;;;9.13;;
18290;SDS011;9271;48.590;8.866;2022-11-15T01:56:02;11.43;;;9.87;;
18290;SDS011;9271;48.590;8.866;2022-11-15T01:58:32;11.03;;;9.00;;
18290;SDS011;9271;48.590;8.866;2022-11-15T02:01:01;13.57;;;9.50;;
18290;SDS011;9271;48.590;8.866;2022-11-15T02:03:30;10.10;;;9.10;;
18290;SDS011;9271;48.590;8.866;2022-11-15T02:06:01;10.20;;;8.97;;
18290;SDS011;9271;48.590;8.866;2022-11-15T02:08:29;10.03;;;9.03;;
18290;SDS011;9271;48.590;8.866;2022-11-15T02:10:56;10.17;;;9.03;;
18290;SDS011;9271;48.590;8.866;2022-11-15T02:13:23;11.63;;;8.50;;
18290;SDS011;9271;48.590;8.866;2022-11-15T02:15:52;10.77;;;9.50;;
18290;SDS011;9271;48.590;8.866;2022-11-15T02:18:27;9.30;;;8.30;;
18290;SDS011;9271;48.590;8.866;2022-11-15T02:21:01;10.37;;;9.20;;
18290;SDS011;9271;48.590;8.866;2022-11-15T02:23:57;9.43;;;8.47;;
18290;SDS011;9271;48.590;8.866;2022-11-15T02:26:47;10.33;;;8.47;;
18290;SDS011;9271;48.590;8.866;2022-11-15T02:29:32;11.80;;;9.00;;
18290;SDS011;9271;48.590;8.866;2022-11-15T02:32:14;9.57;;;8.57;;
18290;SDS011;9271;48.590;8.866;2022-11-15T02:34:46;11.10;;;9.20;;
18290;SDS011;9271;48.590;8.866;2022-11-15T02:37:21;9.97;;;7.77;;
18290;SDS011;9271;48.590;8.866;2022-11-15T02:39:58;9.50;;;8.10;;
18290;SDS011;9271;48.590;8.866;2022-11-15T02:42:31;11.90;;;8.37;;
18290;SDS011;9271;48.590;8.866;2022-11-15T02:45:20;9.80;;;7.87;;
18290;SDS011;9271;48.590;8.866;2022-11-15T02:47:52;9.47;;;8.53;;
18290;SDS011;9271;48.590;8.866;2022-11-15T02:50:24;11.37;;;8.53;;
18290;SDS011;9271;48.590;8.866;2022-11-15T02:52:53;10.47;;;8.40;;
18290;SDS011;9271;48.590;8.866;2022-11-15T02:55:27;9.43;;;8.47;;
18290;SDS011;9271;48.590;8.866;2022-11-15T02:57:59;9.60;;;8.60;;
18290;SDS011;9271;48.590;8.866;2022-11-15T03:00:38;10.60;;;8.17;;
18290;SDS011;9271;48.590;8.866;2022-11-15T03:03:24;9.07;;;7.77;;
18290;SDS011;9271;48.590;8.866;2022-11-15T03:06:04;10.10;;;8.10;;
18290;SDS011;9271;48.590;8.866;2022-11-15T03:08:39;9.30;;;8.30;;
18290;SDS011;9271;48.590;8.866;2022-11-15T03:11:17;8.60;;;7.77;;
18290;SDS011;9271;48.590;8.866;2022-11-15T03:13:46;8.83;;;7.93;;
18290;SDS011;9271;48.590;8.866;2022-11-15T03:16:18;8.23;;;7.43;;
18290;SDS011;9271;48.590;8.866;2022-11-15T03:18:53;10.03;;;7.83;;
18290;SDS011;9271;48.590;8.866;2022-11-15T03:21:23;9.97;;;7.70;;
18290;SDS011;9271;48.590;8.866;2022-11-15T03:23:51;8.87;;;7.97;;
18290;SDS011;9271;48.590;8.866;2022-11-15T03:26:20;8.70;;;7.77;;
18290;SDS011;9271;48.590;8.866;2022-11-15T03:28:50;9.97;;;7.53;;
18290;SDS011;9271;48.590;8.866;2022-11-15T03:31:22;8.60;;;6.97;;
18290;SDS011;9271;48.590;8.866;2022-11-15T03:34:11;8.83;;;7.87;;
18290;SDS011;9271;48.590;8.866;2022-11-15T03:36:42;8.27;;;7.47;;
18290;SDS011;9271;48.590;8.866;2022-11-15T03:39:10;8.50;;;7.60;;
18290;SDS011;9271;48.590;8.866;2022-11-15T03:41:39;9.93;;;7.53;;
18290;SDS011;9271;48.590;8.866;2022-11-15T03:44:11;9.23;;;7.60;;
18290;SDS011;9271;48.590;8.866;2022-11-15T03:46:46;8.13;;;7.30;;
18290;SDS011;9271;48.590;8.866;2022-11-15T03:49:22;9.30;;;7.70;;
18290;SDS011;9271;48.590;8.866;2022-11-15T03:51:53;8.17;;;7.37;;
18290;SDS011;9271;48.590;8.866;2022-11-15T03:54:23;9.07;;;7.97;;
18290;SDS011;9271;48.590;8.866;2022-11-15T03:56:49;9.00;;;8.00;;
18290;SDS011;9271;48.590;8.866;2022-11-15T03:59:16;9.67;;;8.03;;
18290;SDS011;9271;48.590;8.866;2022-11-15T04:01:43;9.60;;;7.97;;
18290;SDS011;9271;48.590;8.866;2022-11-15T04:04:10;7.83;;;7.10;;
18290;SDS011;9271;48.590;8.866;2022-11-15T04:06:38;8.33;;;7.57;;
18290;SDS011;9271;48.590;8.866;2022-11-15T04:09:05;9.33;;;7.60;;
18290;SDS011;9271;48.590;8.866;2022-11-15T04:11:31;11.93;;;8.00;;
18290;SDS011;9271;48.590;8.866;2022-11-15T04:13:58;8.57;;;7.63;;
18290;SDS011;9271;48.590;8.866;2022-11-15T04:16:25;9.70;;;8.37;;
18290;SDS011;9271;48.590;8.866;2022-11-15T04:18:52;8.57;;;7.67;;
18290;SDS011;9271;48.590;8.866;2022-11-15T04:21:32;9.93;;;8.10;;
18290;SDS011;9271;48.590;8.866;2022-11-15T04:24:18;8.50;;;7.37;;
18290;SDS011;9271;48.590;8.866;2022-11-15T04:26:45;9.43;;;7.27;;
18290;SDS011;9271;48.590;8.866;2022-11-15T04:29:11;10.73;;;9.17;;
18290;SDS011;9271;48.590;8.866;2022-11-15T04:31:55;9.60;;;8.57;;
18290;SDS011;9271;48.590;8.866;2022-11-15T04:34:22;9.67;;;8.67;;
18290;SDS011;9271;48.590;8.866;2022-11-15T04:36:49;9.47;;;8.47;;
18290;SDS011;9271;48.590;8.866;2022-11-15T04:39:34;8.77;;;7.87;;
18290;SDS011;9271;48.590;8.866;2022-11-15T04:42:01;11.70;;;9.10;;
18290;SDS011;9271;48.590;8.866;2022-11-15T04:44:28;8.03;;;7.23;;
18290;SDS011;9271;48.590;8.866;2022-11-15T04:46:54;8.07;;;7.27;;
18290;SDS011;9271;48.590;8.866;2022-11-15T04:49:21;8.77;;;7.87;;
18290;SDS011;9271;48.590;8.866;2022-11-15T04:51:48;8.80;;;8.00;;
18290;SDS011;9271;48.590;8.866;2022-11-15T04:54:15;8.00;;;7.33;;
18290;SDS011;9271;48.590;8.866;2022-11-15T04:56:43;8.57;;;7.67;;
18290;SDS011;9271;48.590;8.866;2022-11-15T04:59:10;8.73;;;7.93;;
18290;SDS011;9271;48.590;8.866;2022-11-15T05:01:37;7.87;;;7.07;;
18290;SDS011;9271;48.590;8.866;2022-11-15T05:04:03;8.73;;;7.10;;
18290;SDS011;9271;48.590;8.866;2022-11-15T05:06:45;9.83;;;6.93;;
18290;SDS011;9271;48.590;8.866;2022-11-15T05:09:12;9.27;;;7.50;;
18290;SDS011;9271;48.590;8.866;2022-11-15T05:11:39;7.87;;;7.07;;
18290;SDS011;9271;48.590;8.866;2022-11-15T05:14:08;9.33;;;7.83;;
18290;SDS011;9271;48.590;8.866;2022-11-15T05:16:34;8.77;;;7.27;;
18290;SDS011;9271;48.590;8.866;2022-11-15T05:19:01;8.07;;;7.37;;
18290;SDS011;9271;48.590;8.866;2022-11-15T05:21:29;8.57;;;7.67;;
18290;SDS011;9271;48.590;8.866;2022-11-15T05:23:56;10.33;;;7.50;;
18290;SDS011;9271;48.590;8.866;2022-11-15T05:26:22;9.10;;;8.07;;
18290;SDS011;9271;48.590;8.866;2022-11-15T05:28:51;8.50;;;7.70;;
18290;SDS011;9271;48.590;8.866;2022-11-15T05:31:21;10.87;;;9.40;;
18290;SDS011;9271;48.590;8.866;2022-11-15T05:33:49;14.00;;;10.93;;
18290;SDS011;9271;48.590;8.866;2022-11-15T05:36:17;11.13;;;10.13;;
18290;SDS011;9271;48.590;8.866;2022-11-15T05:38:51;12.50;;;11.30;;
18290;SDS011;9271;48.590;8.866;2022-11-15T05:41:18;13.87;;;12.50;;
18290;SDS011;9271;48.590;8.866;2022-11-15T05:43:47;14.93;;;13.43;;
18290;SDS011;9271;48.590;8.866;2022-11-15T05:46:16;15.23;;;13.73;;
18290;SDS011;9271;48.590;8.866;2022-11-15T05:48:45;16.97;;;15.17;;
18290;SDS011;9271;48.590;8.866;2022-11-15T05:51:15;16.60;;;14.90;;
18290;SDS011;9271;48.590;8.866;2022-11-15T05:53:45;16.00;;;13.70;;
18290;SDS011;9271;48.590;8.866;2022-11-15T05:56:12;14.30;;;12.80;;
18290;SDS011;9271;48.590;8.866;2022-11-15T05:58:40;14.33;;;12.83;;
18290;SDS011;9271;48.590;8.866;2022-11-15T06:01:08;13.90;;;12.23;;
18290;SDS011;9271;48.590;8.866;2022-11-15T06:03:35;14.50;;;13.00;;
18290;SDS011;9271;48.590;8.866;2022-11-15T06:06:03;13.50;;;11.70;;
18290;SDS011;9271;48.590;8.866;2022-11-15T06:08:30;13.60;;;12.13;;
18290;SDS011;9271;48.590;8.866;2022-11-15T06:11:02;13.73;;;12.20;;
18290;SDS011;9271;48.590;8.866;2022-11-15T06:13:29;13.77;;;11.27;;
18290;SDS011;9271;48.590;8.866;2022-11-15T06:15:56;10.77;;;9.70;;
18290;SDS011;9271;48.590;8.866;2022-11-15T06:18:22;11.97;;;10.17;;
18290;SDS011;9271;48.590;8.866;2022-11-15T06:20:49;14.03;;;9.50;;
18290;SDS011;9271;48.590;8.866;2022-11-15T06:23:17;9.77;;;8.77;;
18290;SDS011;9271;48.590;8.866;2022-11-15T06:25:44;10.00;;;9.07;;
18290;SDS011;9271;48.590;8.866;2022-11-15T06:28:11;9.57;;;8.63;;
18290;SDS011;9271;48.590;8.866;2022-11-15T06:30:37;11.47;;;8.93;;
18290;SDS011;9271;48.590;8.866;2022-11-15T06:33:05;10.30;;;8.83;;
18290;SDS011;9271;48.590;8.866;2022-11-15T06:35:33;11.10;;;9.40;;
18290;SDS011;9271;48.590;8.866;2022-11-15T06:38:02;12.57;;;10.67;;
18290;SDS011;9271;48.590;8.866;2022-11-15T06:40:32;11.90;;;10.70;;
18290;SDS011;9271;48.590;8.866;2022-11-15T06:42:59;12.70;;;11.30;;
18290;SDS011;9271;48.590;8.866;2022-11-15T06:45:27;11.73;;;10.63;;
18290;SDS011;9271;48.590;8.866;2022-11-15T06:47:53;10.93;;;9.83;;
18290;SDS011;9271;48.590;8.866;2022-11-15T06:50:20;10.07;;;8.90;;
18290;SDS011;9271;48.590;8.866;2022-11-15T06:52:47;9.20;;;8.37;;
18290;SDS011;9271;48.590;8.866;2022-11-15T06:55:14;8.57;;;7.70;;
18290;SDS011;9271;48.590;8.866;2022-11-15T06:57:47;8.83;;;7.97;;
18290;SDS011;9271;48.590;8.866;2022-11-15T07:00:15;8.30;;;7.47;;
18290;SDS011;9271;48.590;8.866;2022-11-15T07:02:42;8.57;;;7.30;;
18290;SDS011;9271;48.590;8.866;2022-11-15T07:05:09;8.83;;;6.70;;
18290;SDS011;9271;48.590;8.866;2022-11-15T07:07:36;8.13;;;7.33;;
18290;SDS011;9271;48.590;8.866;2022-11-15T07:10:03;11.40;;;7.70;;
18290;SDS011;9271;48.590;8.866;2022-11-15T07:12:31;9.47;;;7.10;;
18290;SDS011;9271;48.590;8.866;2022-11-15T07:14:59;8.70;;;7.43;;
18290;SDS011;9271;48.590;8.866;2022-11-15T07:17:26;8.47;;;7.20;;
18290;SDS011;9271;48.590;8.866;2022-11-15T07:19:52;7.50;;;6.80;;
18290;SDS011;9271;48.590;8.866;2022-11-15T07:22:19;7.20;;;6.20;;
18290;SDS011;9271;48.590;8.866;2022-11-15T07:24:46;7.70;;;7.00;;
18290;SDS011;9271;48.590;8.866;2022-11-15T07:27:13;7.63;;;6.33;;
18290;SDS011;9271;48.590;8.866;2022-11-15T07:29:39;8.37;;;6.70;;
18290;SDS011;9271;48.590;8.866;2022-11-15T07:32:07;8.00;;;7.20;;
18290;SDS011;9271;48.590;8.866;2022-11-15T07:34:35;9.47;;;6.97;;
18290;SDS011;9271;48.590;8.866;2022-11-15T07:37:02;8.97;;;7.30;;
18290;SDS011;9271;48.590;8.866;2022-11-15T07:39:29;10.13;;;6.53;;
18290;SDS011;9271;48.590;8.866;2022-11-15T07:41:55;9.50;;;6.37;;
18290;SDS011;9271;48.590;8.866;2022-11-15T07:44:36;8.00;;;6.23;;
18290;SDS011;9271;48.590;8.866;2022-11-15T07:47:03;8.17;;;6.60;;
18290;SDS011;9271;48.590;8.866;2022-11-15T07:49:31;7.50;;;6.40;;
18290;SDS011;9271;48.590;8.866;2022-11-15T07:51:58;7.37;;;6.43;;
18290;SDS011;9271;48.590;8.866;2022-11-15T07:54:24;7.40;;;6.17;;
18290;SDS011;9271;48.590;8.866;2022-11-15T07:56:51;9.80;;;6.23;;
18290;SDS011;9271;48.590;8.866;2022-11-15T07:59:18;6.23;;;5.63;;
18290;SDS011;9271;48.590;8.866;2022-11-15T08:01:45;6.07;;;5.33;;
18290;SDS011;9271;48.590;8.866;2022-11-15T08:04:12;9.20;;;5.00;;
18290;SDS011;9271;48.590;8.866;2022-11-15T08:06:40;6.93;;;5.50;;
18290;SDS011;9271;48.590;8.866;2022-11-15T08:09:06;6.37;;;4.90;;
18290;SDS011;9271;48.590;8.866;2022-11-15T08:11:33;7.23;;;5.73;;
18290;SDS011;9271;48.590;8.866;2022-11-15T08:14:00;9.03;;;6.07;;
18290;SDS011;9271;48.590;8.866;2022-11-15T08:16:27;8.63;;;7.20;;
18290;SDS011;9271;48.590;8.866;2022-11-15T08:18:53;7.83;;;6.40;;
18290;SDS011;9271;48.590;8.866;2022-11-15T08:21:20;9.53;;;6.80;;
18290;SDS011;9271;48.590;8.866;2022-11-15T08:23:49;10.90;;;8.30;;
18290;SDS011;9271;48.590;8.866;2022-11-15T08:26:16;9.77;;;6.73;;
18290;SDS011;9271;48.590;8.866;2022-11-15T08:28:43;8.83;;;7.03;;
18290;SDS011;9271;48.590;8.866;2022-11-15T08:31:12;13.73;;;7.27;;
18290;SDS011;9271;48.590;8.866;2022-11-15T08:33:40;9.10;;;6.77;;
18290;SDS011;9271;48.590;8.866;2022-11-15T08:36:09;14.20;;;7.07;;
18290;SDS011;9271;48.590;8.866;2022-11-15T08:38:38;11.00;;;6.07;;
18290;SDS011;9271;48.590;8.866;2022-11-15T08:41:06;14.27;;;6.23;;
18290;SDS011;9271;48.590;8.866;2022-11-15T08:43:36;9.03;;;5.73;;
18290;SDS011;9271;48.590;8.866;2022-11-15T08:46:03;7.83;;;4.50;;
18290;SDS011;9271;48.590;8.866;2022-11-15T08:48:30;5.20;;;4.37;;
18290;SDS011;9271;48.590;8.866;2022-11-15T08:50:57;4.07;;;3.67;;
18290;SDS011;9271;48.590;8.866;2022-11-15T08:53:23;4.83;;;3.50;;
18290;SDS011;9271;48.590;8.866;2022-11-15T08:55:50;4.93;;;3.90;;
18290;SDS011;9271;48.590;8.866;2022-11-15T08:58:18;5.57;;;3.77;;
18290;SDS011;9271;48.590;8.866;2022-11-15T09:00:45;7.43;;;4.43;;
18290;SDS011;9271;48.590;8.866;2022-11-15T09:03:12;4.30;;;3.90;;
18290;SDS011;9271;48.590;8.866;2022-11-15T09:05:38;7.00;;;4.10;;
18290;SDS011;9271;48.590;8.866;2022-11-15T09:08:05;5.20;;;3.90;;
18290;SDS011;9271;48.590;8.866;2022-11-15T09:10:32;9.03;;;4.53;;
18290;SDS011;9271;48.590;8.866;2022-11-15T09:12:58;7.37;;;4.40;;
18290;SDS011;9271;48.590;8.866;2022-11-15T09:15:26;4.33;;;3.60;;
18290;SDS011;9271;48.590;8.866;2022-11-15T09:17:53;4.63;;;3.53;;
18290;SDS011;9271;48.590;8.866;2022-11-15T09:20:23;4.93;;;3.47;;
18290;SDS011;9271;48.590;8.866;2022-11-15T09:22:50;4.87;;;3.30;;
18290;SDS011;9271;48.590;8.866;2022-11-15T09:25:17;3.73;;;3.07;;
18290;SDS011;9271;48.590;8.866;2022-11-15T09:27:43;5.17;;;3.57;;
18290;SDS011;9271;48.590;8.866;2022-11-15T09:30:10;3.83;;;3.33;;
18290;SDS011;9271;48.590;8.866;2022-11-15T09:32:39;5.43;;;3.80;;
18290;SDS011;9271;48.590;8.866;2022-11-15T09:35:06;4.43;;;3.07;;
18290;SDS011;9271;48.590;8.866;2022-11-15T09:37:33;5.17;;;3.10;;
18290;SDS011;9271;48.590;8.866;2022-11-15T09:39:59;4.60;;;3.00;;
18290;SDS011;9271;48.590;8.866;2022-11-15T09:42:33;4.03;;;3.03;;
18290;SDS011;9271;48.590;8.866;2022-11-15T09:45:10;5.63;;;3.50;;
18290;SDS011;9271;48.590;8.866;2022-11-15T09:48:03;4.37;;;3.60;;
18290;SDS011;9271;48.590;8.866;2022-11-15T09:50:44;4.27;;;3.87;;
18290;SDS011;9271;48.590;8.866;2022-11-15T09:53:14;13.07;;;7.97;;
18290;SDS011;9271;48.590;8.866;2022-11-15T09:55:49;12.20;;;8.73;;
18290;SDS011;9271;48.590;8.866;2022-11-15T09:58:24;7.07;;;6.40;;
18290;SDS011;9271;48.590;8.866;2022-11-15T10:00:57;6.20;;;5.60;;
18290;SDS011;9271;48.590;8.866;2022-11-15T10:03:28;7.27;;;4.33;;
18290;SDS011;9271;48.590;8.866;2022-11-15T10:05:59;5.00;;;4.00;;
18290;SDS011;9271;48.590;8.866;2022-11-15T10:08:31;3.40;;;3.10;;
18290;SDS011;9271;48.590;8.866;2022-11-15T10:11:07;4.10;;;3.70;;
18290;SDS011;9271;48.590;8.866;2022-11-15T10:13:36;4.03;;;3.63;;
18290;SDS011;9271;48.590;8.866;2022-11-15T10:16:09;3.60;;;3.30;;
18290;SDS011;9271;48.590;8.866;2022-11-15T10:18:49;3.60;;;2.90;;
18290;SDS011;9271;48.590;8.866;2022-11-15T10:21:27;4.80;;;3.70;;
18290;SDS011;9271;48.590;8.866;2022-11-15T10:24:06;4.17;;;3.30;;
18290;SDS011;9271;48.590;8.866;2022-11-15T10:26:37;3.77;;;3.47;;
18290;SDS011;9271;48.590;8.866;2022-11-15T10:29:03;5.57;;;3.10;;
18290;SDS011;9271;48.590;8.866;2022-11-15T10:31:30;3.60;;;3.30;;
18290;SDS011;9271;48.590;8.866;2022-11-15T10:34:05;6.33;;;3.30;;
18290;SDS011;9271;48.590;8.866;2022-11-15T10:36:38;3.60;;;3.30;;
18290;SDS011;9271;48.590;8.866;2022-11-15T10:39:10;4.23;;;3.50;;
18290;SDS011;9271;48.590;8.866;2022-11-15T10:41:38;6.20;;;3.80;;
18290;SDS011;9271;48.590;8.866;2022-11-15T10:49:57;4.07;;;3.67;;
18290;SDS011;9271;48.590;8.866;2022-11-15T10:52:26;6.30;;;3.73;;
18290;SDS011;9271;48.590;8.866;2022-11-15T10:54:55;4.43;;;3.77;;
18290;SDS011;9271;48.590;8.866;2022-11-15T10:57:26;5.70;;;3.80;;
18290;SDS011;9271;48.590;8.866;2022-11-15T10:59:56;4.50;;;3.97;;
18290;SDS011;9271;48.590;8.866;2022-11-15T11:02:29;6.97;;;4.07;;
18290;SDS011;9271;48.590;8.866;2022-11-15T11:04:59;7.00;;;4.27;;
18290;SDS011;9271;48.590;8.866;2022-11-15T11:07:28;5.30;;;3.90;;
18290;SDS011;9271;48.590;8.866;2022-11-15T11:09:58;5.30;;;4.10;;
18290;SDS011;9271;48.590;8.866;2022-11-15T11:12:27;5.50;;;4.40;;
18290;SDS011;9271;48.590;8.866;2022-11-15T11:14:56;4.50;;;3.80;;
18290;SDS011;9271;48.590;8.866;2022-11-15T11:17:27;5.10;;;4.00;;
18290;SDS011;9271;48.590;8.866;2022-11-15T11:20:10;4.77;;;4.37;;
18290;SDS011;9271;48.590;8.866;2022-11-15T11:22:48;9.57;;;6.47;;
18290;SDS011;9271;48.590;8.866;2022-11-15T11:25:28;11.20;;;6.10;;
18290;SDS011;9271;48.590;8.866;2022-11-15T11:28:13;7.67;;;6.93;;
18290;SDS011;9271;48.590;8.866;2022-11-15T11:30:55;9.30;;;8.30;;
18290;SDS011;9271;48.590;8.866;2022-11-15T11:33:31;9.27;;;6.33;;
18290;SDS011;9271;48.590;8.866;2022-11-15T11:36:03;6.57;;;4.80;;
18290;SDS011;9271;48.590;8.866;2022-11-15T11:38:50;6.77;;;4.87;;
18290;SDS011;9271;48.590;8.866;2022-11-15T11:41:38;4.47;;;4.07;;
18290;SDS011;9271;48.590;8.866;2022-11-15T11:44:18;5.37;;;3.83;;
18290;SDS011;9271;48.590;8.866;2022-11-15T11:46:55;4.00;;;3.60;;
18290;SDS011;9271;48.590;8.866;2022-11-15T11:49:28;3.70;;;3.40;;
18290;SDS011;9271;48.590;8.866;2022-11-15T11:52:03;8.03;;;3.83;;
18290;SDS011;9271;48.590;8.866;2022-11-15T11:54:38;7.30;;;4.10;;
18290;SDS011;9271;48.590;8.866;2022-11-15T11:57:12;4.83;;;4.03;;
18290;SDS011;9271;48.590;8.866;2022-11-15T11:59:48;4.83;;;4.03;;
18290;SDS011;9271;48.590;8.866;2022-11-15T12:02:20;4.30;;;3.90;;
18290;SDS011;9271;48.590;8.866;2022-11-15T12:04:53;5.93;;;3.70;;
18290;SDS011;9271;48.590;8.866;2022-11-15T12:07:30;4.60;;;4.10;;
18290;SDS011;9271;48.590;8.866;2022-11-15T12:10:01;5.73;;;3.60;;
18290;SDS011;9271;48.590;8.866;2022-11-15T12:12:35;4.83;;;3.70;;
18290;SDS011;9271;48.590;8.866;2022-11-15T12:15:10;7.23;;;4.17;;
18290;SDS011;9271;48.590;8.866;2022-11-15T12:17:41;6.73;;;3.63;;
18290;SDS011;9271;48.590;8.866;2022-11-15T12:20:13;6.97;;;3.93;;
18290;SDS011;9271;48.590;8.866;2022-11-15T12:22:46;4.93;;;3.77;;
18290;SDS011;9271;48.590;8.866;2022-11-15T12:25:18;6.40;;;4.20;;
18290;SDS011;9271;48.590;8.866;2022-11-15T12:27:50;3.90;;;3.50;;
18290;SDS011;9271;48.590;8.866;2022-11-15T12:30:20;8.93;;;5.47;;
18290;SDS011;9271;48.590;8.866;2022-11-15T12:32:49;5.20;;;4.70;;
18290;SDS011;9271;48.590;8.866;2022-11-15T12:35:30;4.87;;;3.97;;
18290;SDS011;9271;48.590;8.866;2022-11-15T12:38:01;5.00;;;3.57;;
18290;SDS011;9271;48.590;8.866;2022-11-15T12:40:32;5.27;;;3.70;;
18290;SDS011;9271;48.590;8.866;2022-11-15T12:46:01;3.83;;;3.50;;
18290;SDS011;9271;48.590;8.866;2022-11-15T12:57:32;5.53;;;4.10;;
18290;SDS011;9271;48.590;8.866;2022-11-15T13:00:04;5.33;;;4.23;;
18290;SDS011;9271;48.590;8.866;2022-11-15T13:02:47;4.93;;;4.00;;
18290;SDS011;9271;48.590;8.866;2022-11-15T13:08:38;4.43;;;3.73;;
18290;SDS011;9271;48.590;8.866;2022-11-15T13:17:17;5.13;;;4.07;;
18290;SDS011;9271;48.590;8.866;2022-11-15T13:20:18;7.73;;;3.97;;
18290;SDS011;9271;48.590;8.866;2022-11-15T13:22:51;6.20;;;4.33;;
18290;SDS011;9271;48.590;8.866;2022-11-15T13:25:30;4.77;;;4.03;;
18290;SDS011;9271;48.590;8.866;2022-11-15T13:28:17;5.67;;;4.00;;
18290;SDS011;9271;48.590;8.866;2022-11-15T13:30:50;5.47;;;4.20;;
18290;SDS011;9271;48.590;8.866;2022-11-15T13:33:20;5.37;;;4.33;;
18290;SDS011;9271;48.590;8.866;2022-11-15T13:35:50;4.63;;;4.23;;
18290;SDS011;9271;48.590;8.866;2022-11-15T13:38:19;4.47;;;4.07;;
18290;SDS011;9271;48.590;8.866;2022-11-15T13:40:52;4.80;;;4.40;;
18290;SDS011;9271;48.590;8.866;2022-11-15T13:43:25;5.37;;;4.77;;
18290;SDS011;9271;48.590;8.866;2022-11-15T13:46:07;5.80;;;4.43;;
18290;SDS011;9271;48.590;8.866;2022-11-15T13:48:39;6.03;;;4.93;;
18290;SDS011;9271;48.590;8.866;2022-11-15T13:51:08;7.43;;;4.67;;
18290;SDS011;9271;48.590;8.866;2022-11-15T13:53:41;9.23;;;4.60;;
18290;SDS011;9271;48.590;8.866;2022-11-15T13:56:12;5.10;;;4.17;;
18290;SDS011;9271;48.590;8.866;2022-11-15T13:58:40;4.57;;;4.17;;
18290;SDS011;9271;48.590;8.866;2022-11-15T14:01:11;4.90;;;4.13;;
18290;SDS011;9271;48.590;8.866;2022-11-15T14:03:48;7.50;;;4.77;;
18290;SDS011;9271;48.590;8.866;2022-11-15T14:06:18;6.13;;;5.10;;
18290;SDS011;9271;48.590;8.866;2022-11-15T14:09:00;5.43;;;4.80;;
18290;SDS011;9271;48.590;8.866;2022-11-15T14:11:30;7.37;;;5.93;;
18290;SDS011;9271;48.590;8.866;2022-11-15T14:16:41;7.73;;;6.03;;
18290;SDS011;9271;48.590;8.866;2022-11-15T14:19:11;7.67;;;5.57;;
18290;SDS011;9271;48.590;8.866;2022-11-15T14:24:37;7.10;;;5.60;;
18290;SDS011;9271;48.590;8.866;2022-11-15T14:27:21;7.23;;;5.63;;
18290;SDS011;9271;48.590;8.866;2022-11-15T14:29:49;5.53;;;5.00;;
18290;SDS011;9271;48.590;8.866;2022-11-15T14:32:17;6.40;;;5.20;;
18290;SDS011;9271;48.590;8.866;2022-11-15T14:34:47;5.47;;;4.97;;
18290;SDS011;9271;48.590;8.866;2022-11-15T14:37:19;7.00;;;6.30;;
18290;SDS011;9271;48.590;8.866;2022-11-15T14:39:48;11.00;;;6.13;;
18290;SDS011;9271;48.590;8.866;2022-11-15T14:42:15;9.03;;;6.10;;
18290;SDS011;9271;48.590;8.866;2022-11-15T14:44:43;9.50;;;6.20;;
18290;SDS011;9271;48.590;8.866;2022-11-15T14:47:10;7.83;;;6.20;;
18290;SDS011;9271;48.590;8.866;2022-11-15T14:49:36;8.87;;;7.97;;
18290;SDS011;9271;48.590;8.866;2022-11-15T14:52:10;8.03;;;6.60;;
18290;SDS011;9271;48.590;8.866;2022-11-15T14:54:52;7.33;;;6.50;;
18290;SDS011;9271;48.590;8.866;2022-11-15T14:57:19;6.10;;;5.60;;
18290;SDS011;9271;48.590;8.866;2022-11-15T14:59:46;6.47;;;5.87;;
18290;SDS011;9271;48.590;8.866;2022-11-15T15:02:15;6.60;;;5.60;;
18290;SDS011;9271;48.590;8.866;2022-11-15T15:04:45;7.17;;;6.47;;
18290;SDS011;9271;48.590;8.866;2022-11-15T15:07:13;7.97;;;6.67;;
18290;SDS011;9271;48.590;8.866;2022-11-15T15:09:40;10.07;;;7.00;;
18290;SDS011;9271;48.590;8.866;2022-11-15T15:12:11;7.30;;;6.60;;
18290;SDS011;9271;48.590;8.866;2022-11-15T15:14:41;6.73;;;6.03;;
18290;SDS011;9271;48.590;8.866;2022-11-15T15:17:08;7.93;;;7.13;;
18290;SDS011;9271;48.590;8.866;2022-11-15T15:19:35;6.20;;;5.60;;
18290;SDS011;9271;48.590;8.866;2022-11-15T15:22:01;11.10;;;7.63;;
18290;SDS011;9271;48.590;8.866;2022-11-15T15:24:30;9.43;;;6.67;;
18290;SDS011;9271;48.590;8.866;2022-11-15T15:26:56;6.73;;;5.80;;
18290;SDS011;9271;48.590;8.866;2022-11-15T15:29:23;6.90;;;4.60;;
18290;SDS011;9271;48.590;8.866;2022-11-15T15:31:50;4.80;;;4.40;;
18290;SDS011;9271;48.590;8.866;2022-11-15T15:34:16;5.77;;;4.10;;
18290;SDS011;9271;48.590;8.866;2022-11-15T15:36:43;4.53;;;4.13;;
18290;SDS011;9271;48.590;8.866;2022-11-15T15:39:10;6.93;;;4.53;;
18290;SDS011;9271;48.590;8.866;2022-11-15T15:41:38;5.37;;;4.90;;
18290;SDS011;9271;48.590;8.866;2022-11-15T15:44:05;7.33;;;5.27;;
18290;SDS011;9271;48.590;8.866;2022-11-15T15:46:32;6.83;;;5.73;;